Time,TemperatureF,DewpointF,PressureIn,WindDirection,WindDirectionDegrees,WindSpeedMPH,WindSpeedGustMPH,Humidity,HourlyPrecipIn,Conditions,Clouds,dailyrainin,SolarRadiationWatts/m^2,SoftwareType,DateUTC
2013-03-22 00:22:00,39.0,10.0,30.02,NNE,14,11.0,15.0,29,-99.99,,,-99.99,0.000000,,2013-03-22 07:22:00,
2013-03-22 00:32:00,39.0,10.0,30.02,NNE,14,11.0,15.0,29,-99.99,,,-99.99,0.000000,,2013-03-22 07:32:00,
2013-03-22 00:40:00,35.0,10.0,30.03,WSW,256,3.0,5.0,35,-99.99,,,-99.99,0.000000,,2013-03-22 07:40:00,
2013-03-22 01:22:00,35.0,10.0,30.03,WSW,256,3.0,5.0,35,-99.99,,,-99.99,0.000000,,2013-03-22 08:22:00,
2013-03-22 01:32:00,35.0,10.0,30.03,WSW,256,3.0,5.0,35,-99.99,,,-99.99,0.000000,,2013-03-22 08:32:00,
2013-03-22 02:22:00,24.0,13.0,30.04,South,186,4.0,6.0,61,-99.99,,,-99.99,0.000000,,2013-03-22 09:22:00,
2013-03-22 02:40:00,26.0,11.0,30.05,SSE,156,5.0,6.0,54,-99.99,,,-99.99,0.000000,,2013-03-22 09:40:00,
2013-03-22 03:22:00,26.0,11.0,30.05,SSE,156,5.0,6.0,54,-99.99,,,-99.99,0.000000,,2013-03-22 10:22:00,
2013-03-22 03:32:00,26.0,11.0,30.05,SSE,156,5.0,6.0,54,-99.99,,,-99.99,0.000000,,2013-03-22 10:32:00,
2013-03-22 04:22:00,24.0,11.0,30.05,East,93,5.0,7.0,56,-99.99,,,-99.99,0.000000,,2013-03-22 11:22:00,
2013-03-22 07:12:00,16.0,9.0,30.04,West,267,1.0,2.0,75,-99.99,,,-99.99,0.000000,,2013-03-22 14:12:00,
2013-03-22 08:22:00,16.0,12.0,30.05,SSE,161,4.0,5.0,81,-99.99,,,-99.99,80.000000,,2013-03-22 15:22:00,
2013-03-22 08:40:00,29.0,18.0,30.06,SSE,164,4.0,5.0,64,-99.99,,,-99.99,270.000000,,2013-03-22 15:40:00,
2013-03-22 09:22:00,29.0,18.0,30.06,SSE,164,4.0,5.0,64,-99.99,,,-99.99,270.000000,,2013-03-22 16:22:00,
2013-03-22 09:32:00,29.0,18.0,30.06,SSE,164,4.0,5.0,64,-99.99,,,-99.99,270.000000,,2013-03-22 16:32:00,
2013-03-22 09:40:00,36.0,15.0,30.05,ESE,107,2.0,6.0,42,-99.99,,,-99.99,490.000000,,2013-03-22 16:40:00,
2013-03-22 10:23:00,36.0,15.0,30.05,ESE,107,2.0,6.0,42,-99.99,,,-99.99,490.000000,,2013-03-22 17:23:00,
2013-03-22 10:32:00,36.0,15.0,30.05,ESE,107,2.0,6.0,42,-99.99,,,-99.99,490.000000,,2013-03-22 17:32:00,
2013-03-22 10:40:00,39.0,14.0,30.03,NNE,17,4.0,7.0,35,-99.99,,,-99.99,680.000000,,2013-03-22 17:40:00,
2013-03-22 11:22:00,39.0,14.0,30.03,NNE,17,4.0,7.0,35,-99.99,,,-99.99,680.000000,,2013-03-22 18:22:00,
2013-03-22 11:32:00,39.0,14.0,30.03,NNE,17,4.0,7.0,35,-99.99,,,-99.99,680.000000,,2013-03-22 18:32:00,
2013-03-22 11:40:00,43.0,9.0,30.03,ENE,64,3.0,7.0,24,-99.99,,,-99.99,820.000000,,2013-03-22 18:40:00,
2013-03-22 12:22:00,43.0,9.0,30.03,ENE,64,3.0,7.0,24,-99.99,,,-99.99,820.000000,,2013-03-22 19:22:00,
2013-03-22 12:32:00,43.0,9.0,30.03,ENE,64,3.0,7.0,24,-99.99,,,-99.99,820.000000,,2013-03-22 19:32:00,
2013-03-22 12:40:00,47.0,0.0,30.01,ENE,62,5.0,11.0,14,-99.99,,,-99.99,890.000000,,2013-03-22 19:40:00,
2013-03-22 13:22:00,47.0,0.0,30.01,ENE,62,5.0,11.0,14,-99.99,,,-99.99,890.000000,,2013-03-22 20:22:00,
2013-03-22 13:32:00,47.0,0.0,30.01,ENE,62,5.0,11.0,14,-99.99,,,-99.99,890.000000,,2013-03-22 20:32:00,
2013-03-22 13:40:00,49.0,2.0,30.00,ENE,62,3.0,7.0,14,-99.99,,,-99.99,890.000000,,2013-03-22 20:40:00,
2013-03-22 14:22:00,49.0,2.0,30.00,ENE,62,3.0,7.0,14,-99.99,,,-99.99,890.000000,,2013-03-22 21:22:00,
2013-03-22 14:32:00,49.0,2.0,30.00,ENE,62,3.0,7.0,14,-99.99,,,-99.99,890.000000,,2013-03-22 21:32:00,
2013-03-22 14:40:00,51.0,5.0,29.98,ENE,63,4.0,9.0,15,-99.99,,,-99.99,810.000000,,2013-03-22 21:40:00,
2013-03-22 15:23:00,51.0,5.0,29.98,ENE,63,4.0,9.0,15,-99.99,,,-99.99,810.000000,,2013-03-22 22:23:00,
2013-03-22 15:32:00,51.0,5.0,29.98,ENE,63,4.0,9.0,15,-99.99,,,-99.99,810.000000,,2013-03-22 22:32:00,
2013-03-22 15:40:00,53.0,4.0,29.97,NE,41,3.0,8.0,13,-99.99,,,-99.99,680.000000,,2013-03-22 22:40:00,
2013-03-22 16:32:00,53.0,4.0,29.97,NE,41,3.0,8.0,13,-99.99,,,-99.99,680.000000,,2013-03-22 23:32:00,
2013-03-22 16:40:00,54.0,5.0,29.96,NE,47,4.0,8.0,13,-99.99,,,-99.99,500.000000,,2013-03-22 23:40:00,
2013-03-22 17:32:00,54.0,5.0,29.96,NE,47,4.0,8.0,13,-99.99,,,-99.99,500.000000,,2013-03-23 00:32:00,
2013-03-22 17:40:00,53.0,8.0,29.96,NNE,14,11.0,15.0,16,-99.99,,,-99.99,290.000000,,2013-03-23 00:40:00,
2013-03-22 18:22:00,53.0,8.0,29.96,NNE,14,11.0,15.0,16,-99.99,,,-99.99,290.000000,,2013-03-23 01:22:00,
2013-03-22 18:32:00,53.0,8.0,29.96,NNE,14,11.0,15.0,16,-99.99,,,-99.99,290.000000,,2013-03-23 01:32:00,
2013-03-22 18:40:00,47.0,5.0,29.97,NNE,28,12.0,18.0,17,-99.99,,,-99.99,30.000000,,2013-03-23 01:40:00,
2013-03-22 19:22:00,47.0,5.0,29.97,NNE,28,12.0,18.0,17,-99.99,,,-99.99,30.000000,,2013-03-23 02:22:00,
2013-03-22 19:32:00,47.0,5.0,29.97,NNE,28,12.0,18.0,17,-99.99,,,-99.99,30.000000,,2013-03-23 02:32:00,
2013-03-22 19:40:00,43.0,3.0,29.99,North,9,13.0,18.0,19,-99.99,,,-99.99,0.000000,,2013-03-23 02:40:00,
2013-03-22 20:22:00,43.0,3.0,29.99,North,9,13.0,18.0,19,-99.99,,,-99.99,0.000000,,2013-03-23 03:22:00,
2013-03-22 20:33:00,43.0,3.0,29.99,North,9,13.0,18.0,19,-99.99,,,-99.99,0.000000,,2013-03-23 03:33:00,
2013-03-22 20:40:00,38.0,5.0,30.02,NNW,337,11.0,15.0,25,-99.99,,,-99.99,0.000000,,2013-03-23 03:40:00,
2013-03-22 21:23:00,38.0,5.0,30.02,NNW,337,11.0,15.0,25,-99.99,,,-99.99,0.000000,,2013-03-23 04:23:00,
2013-03-22 21:32:00,38.0,5.0,30.02,NNW,337,11.0,15.0,25,-99.99,,,-99.99,0.000000,,2013-03-23 04:32:00,
2013-03-22 21:40:00,36.0,6.0,30.06,NNW,348,7.0,10.0,28,-99.99,,,-99.99,0.000000,,2013-03-23 04:40:00,
2013-03-22 22:22:00,36.0,6.0,30.06,NNW,348,7.0,10.0,28,-99.99,,,-99.99,0.000000,,2013-03-23 05:22:00,
2013-03-22 22:32:00,36.0,6.0,30.06,NNW,348,7.0,10.0,28,-99.99,,,-99.99,0.000000,,2013-03-23 05:32:00,